createdAt,value
2022-12-03T00:00:14.927Z,49.85
2022-12-03T00:02:43.469Z,49.17
2022-12-03T00:05:11.860Z,41.75
2022-12-03T00:07:41.587Z,49.47
2022-12-03T00:10:10.439Z,39.38
2022-12-03T00:12:38.706Z,42.28
2022-12-03T00:15:08.370Z,45.38
2022-12-03T00:17:36.355Z,41.30
2022-12-03T00:20:07.876Z,46.28
2022-12-03T00:22:38.454Z,48.40
2022-12-03T00:25:07.569Z,41.40
2022-12-03T00:27:35.840Z,45.47
2022-12-03T00:30:06.000Z,47.30
2022-12-03T00:32:34.807Z,35.38
2022-12-03T00:35:02.894Z,41.33
2022-12-03T00:37:31.577Z,43.22
2022-12-03T00:40:06.121Z,46.78
2022-12-03T00:42:38.564Z,42.65
2022-12-03T00:45:09.114Z,39.53
2022-12-03T00:47:39.729Z,39.83
2022-12-03T00:50:08.669Z,37.90
2022-12-03T00:52:36.650Z,42.50
2022-12-03T00:55:05.430Z,41.20
2022-12-03T00:57:33.591Z,36.13
2022-12-03T01:00:01.608Z,40.38
2022-12-03T01:02:29.856Z,39.75
2022-12-03T01:04:58.096Z,44.33
2022-12-03T01:07:26.398Z,43.25
2022-12-03T01:09:54.472Z,40.33
2022-12-03T01:12:22.682Z,34.40
2022-12-03T01:14:53.648Z,39.70
2022-12-03T01:17:22.567Z,35.45
2022-12-03T01:19:52.904Z,36.97
2022-12-03T01:22:21.161Z,40.83
2022-12-03T01:24:49.292Z,42.00
2022-12-03T01:27:17.464Z,40.40
2022-12-03T01:29:45.508Z,38.05
2022-12-03T01:32:18.550Z,44.53
2022-12-03T01:34:51.804Z,31.60
2022-12-03T01:37:23.603Z,43.08
2022-12-03T01:39:52.948Z,38.03
2022-12-03T01:42:37.614Z,33.05
2022-12-03T01:45:07.738Z,37.90
2022-12-03T01:47:38.300Z,37.28
2022-12-03T01:50:15.763Z,40.10
2022-12-03T01:52:44.560Z,41.28
2022-12-03T01:55:20.196Z,41.08
2022-12-03T01:57:53.386Z,43.97
2022-12-03T02:00:25.352Z,35.58
2022-12-03T02:03:04.525Z,38.80
2022-12-03T02:05:34.452Z,33.42
2022-12-03T02:08:02.796Z,37.38
2022-12-03T02:10:38.054Z,37.58
2022-12-03T02:13:10.269Z,39.30
2022-12-03T02:15:40.919Z,34.13
2022-12-03T02:18:10.378Z,41.38
2022-12-03T02:21:13.851Z,34.70
2022-12-03T02:24:08.222Z,34.17
2022-12-03T02:29:26.367Z,37.15
2022-12-03T02:31:54.561Z,37.92
2022-12-03T02:34:43.739Z,36.08
2022-12-03T02:37:17.325Z,38.55
2022-12-03T02:39:59.246Z,38.10
2022-12-03T02:45:21.810Z,34.38
2022-12-03T02:47:56.054Z,38.40
2022-12-03T02:50:31.992Z,39.88
2022-12-03T02:53:06.989Z,37.10
2022-12-03T02:55:37.383Z,46.83
2022-12-03T02:58:06.455Z,43.63
2022-12-03T03:00:36.308Z,42.90
2022-12-03T03:03:06.731Z,49.47
2022-12-03T03:05:38.651Z,37.38
2022-12-03T03:08:08.601Z,41.20
2022-12-03T03:10:39.433Z,42.92
2022-12-03T03:13:14.096Z,38.58
2022-12-03T03:15:43.016Z,35.97
2022-12-03T03:18:13.538Z,41.25
2022-12-03T03:20:42.774Z,32.60
2022-12-03T03:23:21.911Z,40.10
2022-12-03T03:26:09.616Z,41.00
2022-12-03T03:28:44.907Z,47.78
2022-12-03T03:31:18.182Z,38.45
2022-12-03T03:33:49.747Z,40.58
2022-12-03T03:36:22.132Z,36.15
2022-12-03T03:38:50.510Z,39.88
2022-12-03T03:41:20.715Z,43.33
2022-12-03T03:43:50.244Z,37.78
2022-12-03T03:46:20.520Z,45.55
2022-12-03T03:48:51.787Z,34.33
2022-12-03T03:51:20.453Z,45.38
2022-12-03T03:53:49.973Z,43.58
2022-12-03T03:56:20.932Z,35.80
2022-12-03T03:58:49.155Z,41.28
2022-12-03T04:01:18.405Z,49.42
2022-12-03T04:03:47.083Z,44.90
2022-12-03T04:06:15.562Z,41.15
2022-12-03T04:08:43.505Z,48.30
2022-12-03T04:11:30.487Z,42.08
2022-12-03T04:13:58.789Z,44.22
2022-12-03T04:16:26.744Z,48.63
2022-12-03T04:18:55.012Z,47.88
2022-12-03T04:21:42.797Z,43.30
2022-12-03T04:24:12.378Z,43.33
2022-12-03T04:26:59.389Z,51.35
2022-12-03T04:29:27.461Z,43.30
2022-12-03T04:32:14.384Z,44.38
2022-12-03T04:35:01.564Z,47.67
2022-12-03T04:37:29.869Z,46.22
2022-12-03T04:39:57.878Z,44.95
2022-12-03T04:42:28.909Z,49.20
2022-12-03T04:45:01.724Z,44.97
2022-12-03T04:47:33.220Z,51.67
2022-12-03T04:50:07.754Z,50.60
2022-12-03T04:52:38.311Z,42.33
2022-12-03T04:55:06.774Z,53.53
2022-12-03T04:57:34.692Z,51.00
2022-12-03T05:00:04.656Z,48.58
2022-12-03T05:02:32.723Z,48.75
2022-12-03T05:05:00.682Z,48.33
2022-12-03T05:07:29.079Z,50.50
2022-12-03T05:09:57.283Z,52.78
2022-12-03T05:12:25.381Z,51.38
2022-12-03T05:14:59.352Z,58.17
2022-12-03T05:17:27.546Z,51.85
2022-12-03T05:20:14.484Z,24.65
2022-12-03T05:22:42.532Z,56.83
2022-12-03T05:25:10.822Z,53.03
2022-12-03T05:27:39.274Z,51.10
2022-12-03T05:30:08.349Z,55.22
2022-12-03T05:32:36.463Z,65.22
2022-12-03T05:35:05.292Z,53.25
2022-12-03T05:37:33.324Z,51.17
2022-12-03T05:40:01.177Z,52.95
2022-12-03T05:42:48.165Z,62.33
2022-12-03T05:45:16.515Z,67.97
2022-12-03T05:47:44.603Z,58.85
2022-12-03T05:50:13.255Z,65.28
2022-12-03T05:52:41.385Z,61.03
2022-12-03T05:55:10.663Z,62.00
2022-12-03T05:57:39.770Z,47.60
2022-12-03T06:00:20.160Z,65.18
2022-12-03T06:02:48.524Z,64.35
2022-12-03T06:05:19.595Z,63.88
2022-12-03T06:07:50.655Z,59.75
2022-12-03T06:10:25.197Z,65.97
2022-12-03T06:12:53.663Z,72.15
2022-12-03T06:15:22.488Z,71.10
2022-12-03T06:17:54.571Z,64.13
2022-12-03T06:20:29.665Z,63.63
2022-12-03T06:22:59.991Z,61.33
2022-12-03T06:25:28.161Z,63.35
2022-12-03T06:28:00.959Z,62.55
2022-12-03T06:30:34.725Z,69.20
2022-12-03T06:33:02.905Z,69.00
2022-12-03T06:35:33.497Z,67.65
2022-12-03T06:38:01.644Z,65.85
2022-12-03T06:40:29.659Z,67.63
2022-12-03T06:42:58.317Z,68.47
2022-12-03T06:45:26.468Z,70.43
2022-12-03T06:47:54.380Z,60.97
2022-12-03T06:50:22.862Z,59.60
2022-12-03T06:52:52.144Z,67.35
2022-12-03T06:55:23.027Z,66.93
2022-12-03T06:57:51.441Z,86.00
2022-12-03T07:00:20.344Z,64.22
2022-12-03T07:02:49.878Z,74.35
2022-12-03T07:05:18.215Z,74.35
2022-12-03T07:07:52.244Z,64.45
2022-12-03T07:10:21.102Z,61.58
2022-12-03T07:12:49.236Z,66.90
2022-12-03T07:15:17.438Z,68.80
2022-12-03T07:17:45.743Z,79.55
2022-12-03T07:20:14.165Z,71.68
2022-12-03T07:22:42.224Z,68.93
2022-12-03T07:25:11.490Z,69.45
2022-12-03T07:27:39.578Z,69.68
2022-12-03T07:30:09.213Z,74.03
2022-12-03T07:32:37.520Z,69.95
2022-12-03T07:35:07.659Z,63.08
2022-12-03T07:37:37.889Z,73.32
2022-12-03T07:40:06.844Z,69.72
2022-12-03T07:42:34.901Z,77.72
2022-12-03T07:45:03.772Z,73.75
2022-12-03T07:47:32.298Z,72.93
2022-12-03T07:50:00.314Z,67.75
2022-12-03T07:52:28.543Z,68.95
2022-12-03T07:54:57.288Z,67.10
2022-12-03T07:57:25.311Z,65.85
2022-12-03T07:59:53.698Z,74.97
2022-12-03T08:02:22.135Z,66.40
2022-12-03T08:04:50.283Z,73.32
2022-12-03T08:07:18.551Z,72.63
2022-12-03T08:09:46.831Z,67.93
2022-12-03T08:12:42.710Z,69.72
2022-12-03T08:15:26.208Z,71.22
2022-12-03T08:18:00.760Z,71.32
2022-12-03T08:20:38.727Z,72.90
2022-12-03T08:23:34.626Z,65.05
2022-12-03T08:26:21.282Z,82.05
2022-12-03T08:28:50.144Z,75.38
2022-12-03T08:31:29.355Z,75.40
2022-12-03T08:34:18.899Z,81.72
2022-12-03T08:37:21.728Z,72.32
2022-12-03T08:39:54.668Z,73.85
2022-12-03T08:42:43.142Z,70.40
2022-12-03T08:45:29.814Z,70.95
2022-12-03T08:52:00.434Z,65.78
2022-12-03T08:54:28.805Z,68.15
2022-12-03T09:01:19.172Z,59.88
2022-12-03T09:03:54.828Z,52.97
2022-12-03T09:06:23.767Z,63.97
2022-12-03T09:08:52.155Z,63.75
2022-12-03T09:11:20.375Z,58.00
2022-12-03T09:13:49.624Z,56.53
2022-12-03T09:16:17.843Z,62.03
2022-12-03T09:18:46.984Z,56.30
2022-12-03T09:21:15.524Z,53.13
2022-12-03T09:23:43.691Z,53.47
2022-12-03T09:26:12.774Z,64.97
2022-12-03T09:28:40.913Z,45.83
2022-12-03T09:31:09.242Z,66.70
2022-12-03T09:33:37.291Z,80.78
2022-12-03T09:36:06.867Z,65.35
2022-12-03T09:41:12.613Z,104.15
2022-12-03T09:44:03.311Z,85.30
2022-12-03T09:46:30.729Z,70.35
2022-12-03T09:48:59.074Z,89.35
2022-12-03T09:51:39.520Z,43.35
2022-12-03T09:54:08.313Z,62.30
2022-12-03T09:56:38.402Z,59.90
2022-12-03T09:59:17.147Z,58.30
2022-12-03T10:01:45.923Z,46.42
2022-12-03T10:04:14.212Z,66.20
2022-12-03T10:06:46.038Z,56.05
2022-12-03T10:09:27.560Z,65.18
2022-12-03T10:12:00.196Z,57.47
2022-12-03T10:14:31.334Z,62.28
2022-12-03T10:17:00.322Z,39.92
2022-12-03T10:19:33.180Z,38.80
2022-12-03T10:22:05.889Z,59.58
2022-12-03T10:24:37.073Z,56.10
2022-12-03T10:27:29.563Z,50.95
2022-12-03T10:33:21.670Z,44.47
2022-12-03T10:35:50.128Z,61.08
2022-12-03T10:38:18.211Z,50.05
2022-12-03T10:40:47.482Z,41.78
2022-12-03T10:43:18.641Z,48.10
2022-12-03T10:46:13.581Z,46.10
2022-12-03T10:48:44.420Z,52.08
2022-12-03T10:51:22.586Z,49.53
2022-12-03T10:53:51.593Z,59.25
2022-12-03T10:56:26.247Z,61.40
2022-12-03T10:58:55.375Z,63.10
2022-12-03T11:01:26.686Z,50.10
2022-12-03T11:04:01.270Z,59.67
2022-12-03T11:06:40.805Z,53.58
2022-12-03T11:09:44.006Z,65.03
2022-12-03T11:13:27.244Z,52.40
2022-12-03T11:16:03.218Z,61.75
2022-12-03T11:18:38.200Z,48.22
2022-12-03T11:21:07.658Z,60.53
2022-12-03T11:23:47.917Z,51.22
2022-12-03T11:26:19.501Z,48.13
2022-12-03T11:28:48.045Z,65.45
2022-12-03T11:31:53.031Z,60.53
2022-12-03T11:37:16.585Z,64.32
2022-12-03T11:39:58.275Z,48.90
2022-12-03T11:46:10.654Z,55.38
2022-12-03T11:48:46.209Z,61.15
2022-12-03T11:51:23.446Z,73.00
2022-12-03T11:53:58.835Z,48.90
2022-12-03T12:00:28.681Z,66.30
2022-12-03T12:02:59.938Z,53.50
2022-12-03T12:05:34.061Z,68.85
2022-12-03T12:08:03.668Z,58.50
2022-12-03T12:10:58.319Z,42.90
2022-12-03T12:13:34.103Z,48.78
2022-12-03T12:16:09.073Z,77.40
2022-12-03T12:18:45.900Z,76.50
2022-12-03T12:22:00.822Z,44.15
2022-12-03T12:24:43.358Z,70.78
2022-12-03T12:27:17.352Z,56.42
2022-12-03T12:30:10.468Z,64.60
2022-12-03T12:32:52.658Z,49.30
2022-12-03T12:35:42.705Z,68.15
2022-12-03T12:38:18.192Z,66.20
2022-12-03T12:40:51.934Z,75.20
2022-12-03T12:43:32.788Z,80.32
2022-12-03T12:46:46.597Z,61.55
2022-12-03T12:49:15.838Z,66.90
2022-12-03T12:52:40.069Z,60.10
2022-12-03T12:55:11.043Z,69.40
2022-12-03T12:57:40.986Z,74.03
2022-12-03T13:00:20.779Z,65.20
2022-12-03T13:03:06.050Z,72.53
2022-12-03T13:05:59.786Z,70.45
2022-12-03T13:08:46.099Z,61.10
2022-12-03T13:11:53.691Z,90.50
2022-12-03T13:17:26.345Z,77.63
2022-12-03T13:27:34.211Z,63.97
2022-12-03T13:30:29.525Z,82.75
2022-12-03T13:33:00.294Z,64.85
2022-12-03T13:35:44.376Z,79.63
2022-12-03T13:38:26.835Z,85.50
2022-12-03T13:41:39.305Z,77.65
2022-12-03T13:44:22.805Z,76.05
2022-12-03T13:50:04.157Z,74.00
2022-12-03T13:52:34.840Z,62.35
2022-12-03T13:55:07.411Z,77.60
2022-12-03T13:57:35.786Z,68.05
2022-12-03T14:00:05.403Z,89.93
2022-12-03T14:02:42.375Z,80.53
2022-12-03T14:05:10.934Z,77.32
2022-12-03T14:07:39.672Z,72.22
2022-12-03T14:10:13.432Z,91.65
2022-12-03T14:12:49.673Z,91.93
2022-12-03T14:15:28.080Z,78.50
2022-12-03T14:18:04.657Z,80.05
2022-12-03T14:21:01.150Z,79.57
2022-12-03T14:23:29.244Z,83.80
2022-12-03T14:26:05.303Z,122.13
2022-12-03T14:28:35.223Z,98.38
2022-12-03T14:31:03.480Z,156.68
2022-12-03T14:33:33.306Z,116.57
2022-12-03T14:36:01.460Z,89.43
2022-12-03T14:38:30.298Z,88.03
2022-12-03T14:40:58.767Z,85.75
2022-12-03T14:43:44.220Z,76.95
2022-12-03T14:46:14.279Z,80.10
2022-12-03T14:48:44.253Z,75.93
2022-12-03T14:51:23.876Z,82.53
2022-12-03T14:53:57.786Z,83.95
2022-12-03T14:56:33.427Z,85.20
2022-12-03T14:59:01.565Z,92.32
2022-12-03T15:01:31.219Z,90.80
2022-12-03T15:04:01.596Z,88.32
2022-12-03T15:06:29.941Z,56.88
2022-12-03T15:08:58.156Z,71.88
2022-12-03T15:11:35.117Z,53.22
2022-12-03T15:14:47.936Z,72.85
2022-12-03T15:21:51.715Z,72.20
2022-12-03T15:24:30.780Z,76.07
2022-12-03T15:26:59.503Z,53.08
2022-12-03T15:29:27.606Z,71.95
2022-12-03T15:31:55.973Z,48.65
2022-12-03T15:34:34.500Z,61.30
2022-12-03T15:37:09.327Z,61.72
2022-12-03T15:39:44.995Z,66.75
2022-12-03T15:42:19.647Z,63.17
2022-12-03T15:44:48.541Z,55.35
2022-12-03T15:47:19.241Z,51.25
2022-12-03T15:49:49.192Z,63.10
2022-12-03T15:52:17.506Z,55.80
2022-12-03T15:54:57.730Z,54.08
2022-12-03T15:57:29.933Z,65.70
2022-12-03T15:59:58.370Z,60.67
2022-12-03T16:02:27.986Z,40.15
2022-12-03T16:05:08.340Z,61.00
2022-12-03T16:07:37.959Z,57.22
2022-12-03T16:10:14.075Z,51.97
2022-12-03T16:12:45.540Z,50.47
2022-12-03T16:15:27.210Z,68.30
2022-12-03T16:17:55.936Z,62.15
2022-12-03T16:20:27.095Z,65.57
2022-12-03T16:22:58.319Z,69.47
2022-12-03T16:25:34.898Z,59.22
2022-12-03T16:28:32.563Z,51.90
2022-12-03T16:31:02.949Z,59.03
2022-12-03T16:33:31.551Z,67.60
2022-12-03T16:36:07.185Z,67.45
2022-12-03T16:38:56.114Z,73.85
2022-12-03T16:41:54.171Z,68.80
2022-12-03T16:50:29.078Z,44.67
2022-12-03T16:55:48.614Z,45.80
2022-12-03T16:58:21.515Z,53.03
2022-12-03T17:00:50.854Z,57.80
2022-12-03T17:03:20.659Z,57.90
2022-12-03T17:05:49.913Z,59.85
2022-12-03T17:08:18.335Z,39.40
2022-12-03T17:10:46.673Z,68.13
2022-12-03T17:13:15.709Z,65.57
2022-12-03T17:15:44.209Z,50.92
2022-12-03T17:18:14.794Z,51.38
2022-12-03T17:20:43.887Z,48.38
2022-12-03T17:23:19.311Z,35.88
2022-12-03T17:25:48.300Z,61.15
2022-12-03T17:28:16.649Z,58.30
2022-12-03T17:30:47.237Z,47.08
2022-12-03T17:33:31.079Z,53.80
2022-12-03T17:35:59.328Z,48.63
2022-12-03T17:38:35.623Z,53.78
2022-12-03T17:41:07.828Z,65.65
2022-12-03T17:43:35.927Z,49.45
2022-12-03T17:46:05.614Z,43.28
2022-12-03T17:48:35.760Z,58.22
2022-12-03T17:51:03.805Z,42.33
2022-12-03T17:53:32.035Z,42.47
2022-12-03T17:56:00.249Z,41.63
2022-12-03T17:58:28.741Z,44.47
2022-12-03T18:01:02.155Z,44.42
2022-12-03T18:03:31.630Z,61.80
2022-12-03T18:05:59.894Z,63.70
2022-12-03T18:08:28.696Z,59.00
2022-12-03T18:10:59.648Z,52.80
2022-12-03T18:13:28.334Z,52.10
2022-12-03T18:15:59.682Z,60.05
2022-12-03T18:18:30.219Z,57.38
2022-12-03T18:21:02.319Z,60.45
2022-12-03T18:23:32.570Z,56.67
2022-12-03T18:26:02.157Z,56.60
2022-12-03T18:28:31.450Z,61.42
2022-12-03T18:31:00.702Z,66.65
2022-12-03T18:33:29.236Z,54.75
2022-12-03T18:35:59.787Z,45.15
2022-12-03T18:38:33.582Z,75.38
2022-12-03T18:41:02.100Z,40.85
2022-12-03T18:43:30.567Z,68.03
2022-12-03T18:45:58.934Z,62.38
2022-12-03T18:48:26.902Z,81.78
2022-12-03T18:50:56.852Z,42.92
2022-12-03T18:53:25.135Z,52.88
2022-12-03T18:55:53.118Z,52.35
2022-12-03T18:58:21.499Z,44.95
2022-12-03T19:00:50.107Z,53.72
2022-12-03T19:03:18.336Z,52.15
2022-12-03T19:05:46.514Z,52.47
2022-12-03T19:08:15.289Z,39.60
2022-12-03T19:10:44.407Z,46.72
2022-12-03T19:13:14.636Z,54.85
2022-12-03T19:15:42.744Z,50.08
2022-12-03T19:18:10.880Z,44.65
2022-12-03T19:20:44.527Z,58.00
2022-12-03T19:23:15.590Z,41.67
2022-12-03T19:25:55.890Z,40.45
2022-12-03T19:28:24.488Z,32.05
2022-12-03T19:31:02.837Z,48.88
2022-12-03T19:33:32.146Z,57.70
2022-12-03T19:36:01.724Z,53.17
2022-12-03T19:38:30.892Z,52.95
2022-12-03T19:41:06.607Z,70.82
2022-12-03T19:43:36.911Z,66.05
2022-12-03T19:46:08.560Z,72.38
2022-12-03T19:51:32.936Z,60.80
2022-12-03T19:53:57.360Z,70.75
2022-12-03T19:56:25.851Z,66.50
2022-12-03T19:58:55.842Z,51.35
2022-12-03T20:01:28.348Z,62.90
2022-12-03T20:03:59.534Z,57.78
2022-12-03T20:06:32.076Z,50.38
2022-12-03T20:09:04.819Z,40.60
2022-12-03T20:11:34.805Z,49.17
2022-12-03T20:14:07.901Z,44.92
2022-12-03T20:16:37.423Z,48.00
2022-12-03T20:19:08.399Z,53.00
2022-12-03T20:21:38.658Z,48.47
2022-12-03T20:24:13.141Z,50.08
2022-12-03T20:26:42.245Z,56.03
2022-12-03T20:29:10.663Z,50.45
2022-12-03T20:31:39.803Z,47.60
2022-12-03T20:34:10.388Z,49.75
2022-12-03T20:36:39.487Z,53.90
2022-12-03T20:39:11.897Z,45.75
2022-12-03T20:41:40.212Z,39.70
2022-12-03T20:44:08.413Z,55.78
2022-12-03T20:46:39.596Z,49.10
2022-12-03T20:49:08.133Z,45.85
2022-12-03T20:51:37.170Z,55.95
2022-12-03T20:54:05.819Z,56.65
2022-12-03T20:56:39.693Z,57.28
2022-12-03T20:59:12.631Z,37.28
2022-12-03T21:01:42.445Z,42.40
2022-12-03T21:04:16.600Z,59.17
2022-12-03T21:06:46.613Z,53.65
2022-12-03T21:09:16.160Z,66.05
2022-12-03T21:11:44.423Z,49.45
2022-12-03T21:14:12.561Z,40.83
2022-12-03T21:17:07.062Z,45.90
2022-12-03T21:19:35.007Z,39.25
2022-12-03T21:22:04.151Z,59.78
2022-12-03T21:24:32.291Z,38.67
2022-12-03T21:27:00.600Z,32.33
2022-12-03T21:29:28.986Z,35.47
2022-12-03T21:31:57.484Z,55.22
2022-12-03T21:34:27.387Z,41.15
2022-12-03T21:36:58.442Z,42.28
2022-12-03T21:39:26.886Z,38.25
2022-12-03T21:42:22.078Z,48.83
2022-12-03T21:44:43.569Z,55.05
2022-12-03T21:47:14.211Z,47.42
2022-12-03T21:49:43.003Z,38.90
2022-12-03T21:52:11.147Z,52.80
2022-12-03T21:54:39.337Z,47.20
2022-12-03T21:57:08.132Z,32.92
2022-12-03T21:59:36.552Z,51.78
2022-12-03T22:02:05.225Z,57.67
2022-12-03T22:04:33.493Z,50.38
2022-12-03T22:07:01.776Z,48.35
2022-12-03T22:09:32.253Z,44.30
2022-12-03T22:12:01.152Z,45.80
2022-12-03T22:14:30.110Z,40.03
2022-12-03T22:17:00.744Z,34.22
2022-12-03T22:19:29.004Z,52.92
2022-12-03T22:21:57.429Z,52.25
2022-12-03T22:24:28.429Z,56.22
2022-12-03T22:27:00.013Z,59.25
2022-12-03T22:29:28.290Z,40.83
2022-12-03T22:31:56.988Z,48.15
2022-12-03T22:34:25.340Z,59.75
2022-12-03T22:36:53.909Z,38.95
2022-12-03T22:39:21.926Z,35.67
2022-12-03T22:41:50.043Z,38.95
2022-12-03T22:44:18.537Z,36.47
2022-12-03T22:46:46.670Z,50.67
2022-12-03T22:49:14.950Z,39.47
2022-12-03T22:51:46.669Z,38.40
2022-12-03T22:54:19.305Z,36.92
2022-12-03T22:56:50.821Z,58.40
2022-12-03T22:59:19.248Z,38.35
2022-12-03T23:01:47.809Z,46.88
2022-12-03T23:04:16.192Z,30.25
2022-12-03T23:06:44.301Z,41.00
2022-12-03T23:09:12.608Z,62.95
2022-12-03T23:11:42.920Z,53.63
2022-12-03T23:14:12.465Z,29.52
2022-12-03T23:16:41.573Z,29.73
2022-12-03T23:19:09.673Z,22.83
2022-12-03T23:21:38.730Z,36.42
2022-12-03T23:24:07.949Z,29.33
2022-12-03T23:26:38.379Z,27.70
2022-12-03T23:29:08.564Z,35.30
2022-12-03T23:31:37.034Z,44.47
2022-12-03T23:34:05.854Z,34.20
2022-12-03T23:36:36.146Z,36.50
2022-12-03T23:39:05.781Z,35.08
2022-12-03T23:41:33.866Z,26.52
2022-12-03T23:44:01.820Z,28.08
2022-12-03T23:46:30.171Z,26.55
2022-12-03T23:48:59.636Z,33.85
2022-12-03T23:51:27.716Z,31.45
2022-12-03T23:53:57.020Z,28.67
2022-12-03T23:56:29.646Z,27.63
2022-12-03T23:58:58.537Z,33.33
